sensor_id;sensor_type;location;lat;lon;timestamp;temperature;humidity
49679;DHT22;35570;48.218;16.326;2023-06-01T00:02:22;19.20;57.70
49679;DHT22;35570;48.218;16.326;2023-06-01T00:04:48;19.20;57.30
49679;DHT22;35570;48.218;16.326;2023-06-01T00:07:14;19.20;57.80
49679;DHT22;35570;48.218;16.326;2023-06-01T00:09:39;19.20;59.70
49679;DHT22;35570;48.218;16.326;2023-06-01T00:12:06;19.10;60.10
49679;DHT22;35570;48.218;16.326;2023-06-01T00:14:32;19.10;57.90
49679;DHT22;35570;48.218;16.326;2023-06-01T00:16:58;19.10;59.60
49679;DHT22;35570;48.218;16.326;2023-06-01T00:19:24;19.10;58.90
49679;DHT22;35570;48.218;16.326;2023-06-01T00:21:52;19.10;58.60
49679;DHT22;35570;48.218;16.326;2023-06-01T00:24:19;19.10;58.50
49679;DHT22;35570;48.218;16.326;2023-06-01T00:26:46;19.00;58.10
49679;DHT22;35570;48.218;16.326;2023-06-01T00:29:12;19.00;59.10
49679;DHT22;35570;48.218;16.326;2023-06-01T00:31:38;19.00;58.90
49679;DHT22;35570;48.218;16.326;2023-06-01T00:34:04;19.00;58.40
49679;DHT22;35570;48.218;16.326;2023-06-01T00:36:30;18.90;58.60
49679;DHT22;35570;48.218;16.326;2023-06-01T00:38:56;18.90;59.60
49679;DHT22;35570;48.218;16.326;2023-06-01T00:41:27;18.90;59.80
49679;DHT22;35570;48.218;16.326;2023-06-01T00:43:53;19.00;59.80
49679;DHT22;35570;48.218;16.326;2023-06-01T00:46:19;19.00;59.30
49679;DHT22;35570;48.218;16.326;2023-06-01T00:48:45;18.90;60.20
49679;DHT22;35570;48.218;16.326;2023-06-01T00:51:10;18.90;59.60
49679;DHT22;35570;48.218;16.326;2023-06-01T00:53:38;18.90;60.00
49679;DHT22;35570;48.218;16.326;2023-06-01T00:56:03;18.90;59.50
49679;DHT22;35570;48.218;16.326;2023-06-01T00:58:30;18.80;59.50
49679;DHT22;35570;48.218;16.326;2023-06-01T01:00:56;18.80;59.80
49679;DHT22;35570;48.218;16.326;2023-06-01T01:03:21;18.80;60.50
49679;DHT22;35570;48.218;16.326;2023-06-01T01:05:56;18.70;59.50
49679;DHT22;35570;48.218;16.326;2023-06-01T01:08:41;18.70;61.90
49679;DHT22;35570;48.218;16.326;2023-06-01T01:11:18;18.70;60.80
49679;DHT22;35570;48.218;16.326;2023-06-01T01:13:50;18.60;59.40
49679;DHT22;35570;48.218;16.326;2023-06-01T01:16:26;18.60;60.40
49679;DHT22;35570;48.218;16.326;2023-06-01T01:21:53;18.60;60.50
49679;DHT22;35570;48.218;16.326;2023-06-01T01:24:29;18.50;60.70
49679;DHT22;35570;48.218;16.326;2023-06-01T01:30:12;18.50;60.40
49679;DHT22;35570;48.218;16.326;2023-06-01T01:32:39;18.50;60.60
49679;DHT22;35570;48.218;16.326;2023-06-01T01:35:07;18.40;61.00
49679;DHT22;35570;48.218;16.326;2023-06-01T01:37:33;18.40;61.10
49679;DHT22;35570;48.218;16.326;2023-06-01T01:39:59;18.40;60.70
49679;DHT22;35570;48.218;16.326;2023-06-01T01:42:26;18.40;61.50
49679;DHT22;35570;48.218;16.326;2023-06-01T01:44:52;18.40;61.10
49679;DHT22;35570;48.218;16.326;2023-06-01T01:47:33;18.30;61.20
49679;DHT22;35570;48.218;16.326;2023-06-01T01:50:04;18.30;63.30
49679;DHT22;35570;48.218;16.326;2023-06-01T01:52:39;18.30;62.20
49679;DHT22;35570;48.218;16.326;2023-06-01T01:55:11;18.20;62.70
49679;DHT22;35570;48.218;16.326;2023-06-01T01:57:37;18.30;62.10
49679;DHT22;35570;48.218;16.326;2023-06-01T02:00:07;18.20;62.80
49679;DHT22;35570;48.218;16.326;2023-06-01T02:02:33;18.20;62.40
49679;DHT22;35570;48.218;16.326;2023-06-01T02:04:59;18.20;63.00
49679;DHT22;35570;48.218;16.326;2023-06-01T02:07:25;18.20;61.90
49679;DHT22;35570;48.218;16.326;2023-06-01T02:09:50;18.10;62.70
49679;DHT22;35570;48.218;16.326;2023-06-01T02:12:16;18.10;63.00
49679;DHT22;35570;48.218;16.326;2023-06-01T02:14:42;18.10;63.20
49679;DHT22;35570;48.218;16.326;2023-06-01T02:17:07;18.10;63.00
49679;DHT22;35570;48.218;16.326;2023-06-01T02:19:33;18.10;63.10
49679;DHT22;35570;48.218;16.326;2023-06-01T02:21:59;18.10;62.80
49679;DHT22;35570;48.218;16.326;2023-06-01T02:24:25;18.00;63.50
49679;DHT22;35570;48.218;16.326;2023-06-01T02:26:51;18.10;63.70
49679;DHT22;35570;48.218;16.326;2023-06-01T02:29:21;18.00;63.10
49679;DHT22;35570;48.218;16.326;2023-06-01T02:31:50;18.00;63.20
49679;DHT22;35570;48.218;16.326;2023-06-01T02:34:17;18.00;64.40
49679;DHT22;35570;48.218;16.326;2023-06-01T02:36:42;18.00;63.00
49679;DHT22;35570;48.218;16.326;2023-06-01T02:39:08;17.90;64.90
49679;DHT22;35570;48.218;16.326;2023-06-01T02:41:34;18.00;63.50
49679;DHT22;35570;48.218;16.326;2023-06-01T02:44:00;18.00;63.80
49679;DHT22;35570;48.218;16.326;2023-06-01T02:46:25;17.90;63.40
49679;DHT22;35570;48.218;16.326;2023-06-01T02:48:51;17.90;65.20
49679;DHT22;35570;48.218;16.326;2023-06-01T02:51:18;17.90;65.60
49679;DHT22;35570;48.218;16.326;2023-06-01T02:53:44;17.90;64.50
49679;DHT22;35570;48.218;16.326;2023-06-01T02:56:11;17.90;64.30
49679;DHT22;35570;48.218;16.326;2023-06-01T02:58:36;17.90;63.50
49679;DHT22;35570;48.218;16.326;2023-06-01T03:01:02;17.90;64.50
49679;DHT22;35570;48.218;16.326;2023-06-01T03:03:28;17.90;63.60
49679;DHT22;35570;48.218;16.326;2023-06-01T03:05:54;17.80;63.90
49679;DHT22;35570;48.218;16.326;2023-06-01T03:08:20;17.80;65.20
49679;DHT22;35570;48.218;16.326;2023-06-01T03:10:46;17.80;64.50
49679;DHT22;35570;48.218;16.326;2023-06-01T03:13:12;17.80;63.90
49679;DHT22;35570;48.218;16.326;2023-06-01T03:15:38;17.80;65.80
49679;DHT22;35570;48.218;16.326;2023-06-01T03:18:04;17.80;65.20
49679;DHT22;35570;48.218;16.326;2023-06-01T03:20:31;17.70;65.00
49679;DHT22;35570;48.218;16.326;2023-06-01T03:22:57;17.70;64.50
49679;DHT22;35570;48.218;16.326;2023-06-01T03:25:22;17.70;65.30
49679;DHT22;35570;48.218;16.326;2023-06-01T03:27:50;17.80;65.10
49679;DHT22;35570;48.218;16.326;2023-06-01T03:30:16;17.80;65.50
49679;DHT22;35570;48.218;16.326;2023-06-01T03:32:42;17.80;65.80
49679;DHT22;35570;48.218;16.326;2023-06-01T03:35:09;17.80;66.10
49679;DHT22;35570;48.218;16.326;2023-06-01T03:37:36;17.80;65.40
49679;DHT22;35570;48.218;16.326;2023-06-01T03:40:02;17.80;64.80
49679;DHT22;35570;48.218;16.326;2023-06-01T03:42:40;17.80;65.40
49679;DHT22;35570;48.218;16.326;2023-06-01T03:45:07;17.80;65.80
49679;DHT22;35570;48.218;16.326;2023-06-01T03:47:33;17.80;64.30
49679;DHT22;35570;48.218;16.326;2023-06-01T03:50:02;17.80;65.40
49679;DHT22;35570;48.218;16.326;2023-06-01T03:52:32;17.80;65.50
49679;DHT22;35570;48.218;16.326;2023-06-01T03:54:59;17.80;65.40
49679;DHT22;35570;48.218;16.326;2023-06-01T03:57:27;17.80;64.60
49679;DHT22;35570;48.218;16.326;2023-06-01T03:59:52;17.80;64.30
49679;DHT22;35570;48.218;16.326;2023-06-01T04:02:18;17.80;66.30
49679;DHT22;35570;48.218;16.326;2023-06-01T04:04:45;17.80;65.60
49679;DHT22;35570;48.218;16.326;2023-06-01T04:07:12;17.80;65.20
49679;DHT22;35570;48.218;16.326;2023-06-01T04:09:40;17.80;64.90
49679;DHT22;35570;48.218;16.326;2023-06-01T04:12:06;17.80;64.90
49679;DHT22;35570;48.218;16.326;2023-06-01T04:14:32;17.80;65.20
49679;DHT22;35570;48.218;16.326;2023-06-01T04:16:57;17.80;64.70
49679;DHT22;35570;48.218;16.326;2023-06-01T04:19:23;17.80;65.50
49679;DHT22;35570;48.218;16.326;2023-06-01T04:21:48;17.90;67.70
49679;DHT22;35570;48.218;16.326;2023-06-01T04:24:15;18.00;64.90
49679;DHT22;35570;48.218;16.326;2023-06-01T04:26:41;18.00;65.90
49679;DHT22;35570;48.218;16.326;2023-06-01T04:29:07;18.00;64.80
49679;DHT22;35570;48.218;16.326;2023-06-01T04:31:37;18.10;66.40
49679;DHT22;35570;48.218;16.326;2023-06-01T04:34:03;18.10;65.00
49679;DHT22;35570;48.218;16.326;2023-06-01T04:36:33;18.20;65.00
49679;DHT22;35570;48.218;16.326;2023-06-01T04:38:58;18.20;65.50
49679;DHT22;35570;48.218;16.326;2023-06-01T04:41:25;18.30;65.00
49679;DHT22;35570;48.218;16.326;2023-06-01T04:43:51;18.30;64.50
49679;DHT22;35570;48.218;16.326;2023-06-01T04:46:22;18.40;64.20
49679;DHT22;35570;48.218;16.326;2023-06-01T04:48:54;18.50;64.40
49679;DHT22;35570;48.218;16.326;2023-06-01T04:51:25;18.50;64.40
49679;DHT22;35570;48.218;16.326;2023-06-01T04:53:53;18.50;64.30
49679;DHT22;35570;48.218;16.326;2023-06-01T04:56:21;18.60;64.10
49679;DHT22;35570;48.218;16.326;2023-06-01T04:58:50;18.70;64.10
49679;DHT22;35570;48.218;16.326;2023-06-01T05:01:16;18.70;63.80
49679;DHT22;35570;48.218;16.326;2023-06-01T05:03:43;18.80;63.40
49679;DHT22;35570;48.218;16.326;2023-06-01T05:06:10;18.80;63.50
49679;DHT22;35570;48.218;16.326;2023-06-01T05:08:41;18.90;63.50
49679;DHT22;35570;48.218;16.326;2023-06-01T05:11:08;18.90;62.80
49679;DHT22;35570;48.218;16.326;2023-06-01T05:13:35;18.90;63.30
49679;DHT22;35570;48.218;16.326;2023-06-01T05:16:02;19.00;63.70
49679;DHT22;35570;48.218;16.326;2023-06-01T05:18:27;19.00;62.60
49679;DHT22;35570;48.218;16.326;2023-06-01T05:20:53;19.20;62.70
49679;DHT22;35570;48.218;16.326;2023-06-01T05:23:18;19.20;62.30
49679;DHT22;35570;48.218;16.326;2023-06-01T05:25:44;19.30;61.90
49679;DHT22;35570;48.218;16.326;2023-06-01T05:28:09;19.40;62.70
49679;DHT22;35570;48.218;16.326;2023-06-01T05:30:35;19.40;61.90
49679;DHT22;35570;48.218;16.326;2023-06-01T05:33:01;19.50;61.00
49679;DHT22;35570;48.218;16.326;2023-06-01T05:35:26;19.60;62.00
49679;DHT22;35570;48.218;16.326;2023-06-01T05:37:52;19.60;60.30
49679;DHT22;35570;48.218;16.326;2023-06-01T05:40:18;19.70;61.20
49679;DHT22;35570;48.218;16.326;2023-06-01T05:42:43;19.70;60.50
49679;DHT22;35570;48.218;16.326;2023-06-01T05:45:09;19.90;61.00
49679;DHT22;35570;48.218;16.326;2023-06-01T05:47:35;19.90;62.20
49679;DHT22;35570;48.218;16.326;2023-06-01T05:50:01;20.00;59.40
49679;DHT22;35570;48.218;16.326;2023-06-01T05:52:27;20.10;59.50
49679;DHT22;35570;48.218;16.326;2023-06-01T05:54:52;20.20;60.00
49679;DHT22;35570;48.218;16.326;2023-06-01T05:57:19;20.20;59.70
49679;DHT22;35570;48.218;16.326;2023-06-01T05:59:46;20.30;58.80
49679;DHT22;35570;48.218;16.326;2023-06-01T06:02:14;20.30;59.60
49679;DHT22;35570;48.218;16.326;2023-06-01T06:04:40;20.40;60.70
49679;DHT22;35570;48.218;16.326;2023-06-01T06:07:06;20.40;65.80
49679;DHT22;35570;48.218;16.326;2023-06-01T06:09:33;20.40;62.60
49679;DHT22;35570;48.218;16.326;2023-06-01T06:11:59;20.40;69.40
49679;DHT22;35570;48.218;16.326;2023-06-01T06:14:25;20.40;68.50
49679;DHT22;35570;48.218;16.326;2023-06-01T06:16:51;20.50;69.80
49679;DHT22;35570;48.218;16.326;2023-06-01T06:19:16;20.50;71.20
49679;DHT22;35570;48.218;16.326;2023-06-01T06:21:42;20.50;68.10
49679;DHT22;35570;48.218;16.326;2023-06-01T06:24:08;20.50;67.70
49679;DHT22;35570;48.218;16.326;2023-06-01T06:26:34;20.50;73.90
49679;DHT22;35570;48.218;16.326;2023-06-01T06:29:00;20.50;71.20
49679;DHT22;35570;48.218;16.326;2023-06-01T06:31:26;20.60;71.30
49679;DHT22;35570;48.218;16.326;2023-06-01T06:33:52;20.60;66.30
49679;DHT22;35570;48.218;16.326;2023-06-01T06:36:18;20.60;68.80
49679;DHT22;35570;48.218;16.326;2023-06-01T06:38:44;20.70;75.80
49679;DHT22;35570;48.218;16.326;2023-06-01T06:41:10;20.70;72.30
49679;DHT22;35570;48.218;16.326;2023-06-01T06:43:35;20.80;68.90
49679;DHT22;35570;48.218;16.326;2023-06-01T06:46:02;20.80;68.70
49679;DHT22;35570;48.218;16.326;2023-06-01T06:48:28;20.80;72.70
49679;DHT22;35570;48.218;16.326;2023-06-01T06:50:54;20.90;66.80
49679;DHT22;35570;48.218;16.326;2023-06-01T06:53:20;20.90;69.60
49679;DHT22;35570;48.218;16.326;2023-06-01T06:55:46;20.90;70.60
49679;DHT22;35570;48.218;16.326;2023-06-01T06:58:12;21.00;65.30
49679;DHT22;35570;48.218;16.326;2023-06-01T07:00:39;21.00;64.10
49679;DHT22;35570;48.218;16.326;2023-06-01T07:03:05;21.00;66.60
49679;DHT22;35570;48.218;16.326;2023-06-01T07:05:31;21.00;68.30
49679;DHT22;35570;48.218;16.326;2023-06-01T07:07:57;21.00;67.70
49679;DHT22;35570;48.218;16.326;2023-06-01T07:10:23;21.10;66.90
49679;DHT22;35570;48.218;16.326;2023-06-01T07:12:48;21.10;71.30
49679;DHT22;35570;48.218;16.326;2023-06-01T07:15:14;21.20;67.10
49679;DHT22;35570;48.218;16.326;2023-06-01T07:17:41;21.30;66.90
49679;DHT22;35570;48.218;16.326;2023-06-01T07:20:07;21.40;70.50
49679;DHT22;35570;48.218;16.326;2023-06-01T07:22:36;21.40;67.90
49679;DHT22;35570;48.218;16.326;2023-06-01T07:25:01;21.50;69.90
49679;DHT22;35570;48.218;16.326;2023-06-01T07:27:27;21.60;69.50
49679;DHT22;35570;48.218;16.326;2023-06-01T07:29:53;21.70;68.80
49679;DHT22;35570;48.218;16.326;2023-06-01T07:32:24;21.80;66.40
49679;DHT22;35570;48.218;16.326;2023-06-01T07:34:51;21.80;65.20
49679;DHT22;35570;48.218;16.326;2023-06-01T07:37:17;21.90;66.10
49679;DHT22;35570;48.218;16.326;2023-06-01T07:39:47;22.00;65.60
49679;DHT22;35570;48.218;16.326;2023-06-01T07:42:14;22.10;66.70
49679;DHT22;35570;48.218;16.326;2023-06-01T07:44:40;22.10;67.20
49679;DHT22;35570;48.218;16.326;2023-06-01T07:47:06;22.20;67.50
49679;DHT22;35570;48.218;16.326;2023-06-01T07:49:32;22.30;62.00
49679;DHT22;35570;48.218;16.326;2023-06-01T07:52:01;22.40;69.60
49679;DHT22;35570;48.218;16.326;2023-06-01T07:54:27;22.50;66.80
49679;DHT22;35570;48.218;16.326;2023-06-01T07:56:53;22.50;64.60
49679;DHT22;35570;48.218;16.326;2023-06-01T07:59:19;22.70;70.10
49679;DHT22;35570;48.218;16.326;2023-06-01T08:01:48;22.70;70.30
49679;DHT22;35570;48.218;16.326;2023-06-01T08:04:14;22.80;68.10
49679;DHT22;35570;48.218;16.326;2023-06-01T08:06:39;22.90;67.90
49679;DHT22;35570;48.218;16.326;2023-06-01T08:09:06;23.00;68.30
49679;DHT22;35570;48.218;16.326;2023-06-01T08:11:32;23.00;68.90
49679;DHT22;35570;48.218;16.326;2023-06-01T08:13:58;23.10;67.80
49679;DHT22;35570;48.218;16.326;2023-06-01T08:16:25;23.20;61.40
49679;DHT22;35570;48.218;16.326;2023-06-01T08:18:52;23.30;61.90
49679;DHT22;35570;48.218;16.326;2023-06-01T08:21:17;23.40;64.30
49679;DHT22;35570;48.218;16.326;2023-06-01T08:23:43;23.50;63.90
49679;DHT22;35570;48.218;16.326;2023-06-01T08:26:10;23.60;61.80
49679;DHT22;35570;48.218;16.326;2023-06-01T08:28:35;23.70;65.00
49679;DHT22;35570;48.218;16.326;2023-06-01T08:31:04;23.70;62.10
49679;DHT22;35570;48.218;16.326;2023-06-01T08:33:29;23.80;63.60
49679;DHT22;35570;48.218;16.326;2023-06-01T08:35:55;23.90;63.70
49679;DHT22;35570;48.218;16.326;2023-06-01T08:38:21;24.10;55.80
49679;DHT22;35570;48.218;16.326;2023-06-01T08:40:47;24.10;54.80
49679;DHT22;35570;48.218;16.326;2023-06-01T08:43:17;24.00;52.30
49679;DHT22;35570;48.218;16.326;2023-06-01T08:45:44;24.10;60.10
49679;DHT22;35570;48.218;16.326;2023-06-01T08:48:17;24.20;59.60
49679;DHT22;35570;48.218;16.326;2023-06-01T08:50:48;24.20;53.90
49679;DHT22;35570;48.218;16.326;2023-06-01T08:53:18;24.30;56.40
49679;DHT22;35570;48.218;16.326;2023-06-01T08:55:52;24.50;62.10
49679;DHT22;35570;48.218;16.326;2023-06-01T08:58:18;24.70;61.80
49679;DHT22;35570;48.218;16.326;2023-06-01T09:00:47;24.80;60.40
49679;DHT22;35570;48.218;16.326;2023-06-01T09:03:13;25.00;55.90
49679;DHT22;35570;48.218;16.326;2023-06-01T09:05:40;25.10;57.80
49679;DHT22;35570;48.218;16.326;2023-06-01T09:08:06;25.20;55.70
49679;DHT22;35570;48.218;16.326;2023-06-01T09:10:32;25.40;58.00
49679;DHT22;35570;48.218;16.326;2023-06-01T09:12:58;25.50;60.40
49679;DHT22;35570;48.218;16.326;2023-06-01T09:15:25;25.60;59.50
49679;DHT22;35570;48.218;16.326;2023-06-01T09:17:52;25.80;56.00
49679;DHT22;35570;48.218;16.326;2023-06-01T09:20:28;25.80;53.00
49679;DHT22;35570;48.218;16.326;2023-06-01T09:22:54;25.90;51.50
49679;DHT22;35570;48.218;16.326;2023-06-01T09:25:27;26.00;53.80
49679;DHT22;35570;48.218;16.326;2023-06-01T09:27:55;26.10;53.70
49679;DHT22;35570;48.218;16.326;2023-06-01T09:30:22;26.20;57.80
49679;DHT22;35570;48.218;16.326;2023-06-01T09:32:49;26.30;51.70
49679;DHT22;35570;48.218;16.326;2023-06-01T09:35:46;26.40;54.80
49679;DHT22;35570;48.218;16.326;2023-06-01T09:38:21;26.60;57.00
49679;DHT22;35570;48.218;16.326;2023-06-01T09:40:59;26.70;49.80
49679;DHT22;35570;48.218;16.326;2023-06-01T09:43:25;26.80;48.90
49679;DHT22;35570;48.218;16.326;2023-06-01T09:46:08;27.00;54.10
49679;DHT22;35570;48.218;16.326;2023-06-01T09:48:34;27.10;56.40
49679;DHT22;35570;48.218;16.326;2023-06-01T09:51:00;27.20;54.20
49679;DHT22;35570;48.218;16.326;2023-06-01T09:53:26;27.20;54.10
49679;DHT22;35570;48.218;16.326;2023-06-01T09:56:02;27.30;51.40
49679;DHT22;35570;48.218;16.326;2023-06-01T09:58:28;27.40;54.00
49679;DHT22;35570;48.218;16.326;2023-06-01T10:00:54;27.50;53.80
49679;DHT22;35570;48.218;16.326;2023-06-01T10:03:21;27.60;52.20
49679;DHT22;35570;48.218;16.326;2023-06-01T10:05:48;27.70;55.80
49679;DHT22;35570;48.218;16.326;2023-06-01T10:08:16;27.80;52.90
49679;DHT22;35570;48.218;16.326;2023-06-01T10:10:47;27.90;54.60
49679;DHT22;35570;48.218;16.326;2023-06-01T10:13:15;27.90;52.50
49679;DHT22;35570;48.218;16.326;2023-06-01T10:15:41;28.20;55.30
49679;DHT22;35570;48.218;16.326;2023-06-01T10:18:07;28.30;54.20
49679;DHT22;35570;48.218;16.326;2023-06-01T10:20:37;28.40;52.40
49679;DHT22;35570;48.218;16.326;2023-06-01T10:23:05;28.60;50.80
49679;DHT22;35570;48.218;16.326;2023-06-01T10:25:41;28.60;49.60
49679;DHT22;35570;48.218;16.326;2023-06-01T10:28:11;28.70;48.50
49679;DHT22;35570;48.218;16.326;2023-06-01T10:30:37;28.60;45.10
49679;DHT22;35570;48.218;16.326;2023-06-01T10:33:03;28.60;52.10
49679;DHT22;35570;48.218;16.326;2023-06-01T10:40:42;28.90;50.30
49679;DHT22;35570;48.218;16.326;2023-06-01T10:46:24;29.20;49.80
49679;DHT22;35570;48.218;16.326;2023-06-01T10:51:19;29.60;49.60
49679;DHT22;35570;48.218;16.326;2023-06-01T10:53:45;29.70;45.30
49679;DHT22;35570;48.218;16.326;2023-06-01T10:56:25;29.90;48.50
49679;DHT22;35570;48.218;16.326;2023-06-01T11:01:34;30.20;43.90
49679;DHT22;35570;48.218;16.326;2023-06-01T11:04:01;30.20;45.80
49679;DHT22;35570;48.218;16.326;2023-06-01T11:06:38;30.20;45.60
49679;DHT22;35570;48.218;16.326;2023-06-01T11:09:09;30.20;43.90
49679;DHT22;35570;48.218;16.326;2023-06-01T11:14:18;30.40;45.30
49679;DHT22;35570;48.218;16.326;2023-06-01T11:16:44;30.30;41.50
49679;DHT22;35570;48.218;16.326;2023-06-01T11:19:10;30.00;41.00
49679;DHT22;35570;48.218;16.326;2023-06-01T11:21:43;29.80;44.60
49679;DHT22;35570;48.218;16.326;2023-06-01T11:24:11;29.70;48.90
49679;DHT22;35570;48.218;16.326;2023-06-01T11:26:42;29.70;48.30
49679;DHT22;35570;48.218;16.326;2023-06-01T11:29:22;29.70;45.30
49679;DHT22;35570;48.218;16.326;2023-06-01T11:31:52;29.90;46.80
49679;DHT22;35570;48.218;16.326;2023-06-01T11:34:25;30.10;48.60
49679;DHT22;35570;48.218;16.326;2023-06-01T11:36:52;30.80;48.60
49679;DHT22;35570;48.218;16.326;2023-06-01T11:39:26;31.10;48.50
49679;DHT22;35570;48.218;16.326;2023-06-01T11:44:40;30.80;38.30
49679;DHT22;35570;48.218;16.326;2023-06-01T11:47:08;30.70;41.20
49679;DHT22;35570;48.218;16.326;2023-06-01T11:49:47;30.70;41.40
49679;DHT22;35570;48.218;16.326;2023-06-01T11:52:15;30.80;40.40
49679;DHT22;35570;48.218;16.326;2023-06-01T11:54:41;31.00;42.30
49679;DHT22;35570;48.218;16.326;2023-06-01T11:57:07;31.30;39.80
49679;DHT22;35570;48.218;16.326;2023-06-01T11:59:47;31.30;39.50
49679;DHT22;35570;48.218;16.326;2023-06-01T12:02:21;31.10;39.10
49679;DHT22;35570;48.218;16.326;2023-06-01T12:04:57;30.90;41.40
49679;DHT22;35570;48.218;16.326;2023-06-01T12:07:24;31.00;43.20
49679;DHT22;35570;48.218;16.326;2023-06-01T12:09:54;31.00;43.20
49679;DHT22;35570;48.218;16.326;2023-06-01T12:12:24;31.00;41.10
49679;DHT22;35570;48.218;16.326;2023-06-01T12:14:50;30.80;43.10
49679;DHT22;35570;48.218;16.326;2023-06-01T12:17:17;30.80;43.00
49679;DHT22;35570;48.218;16.326;2023-06-01T12:19:47;31.00;43.20
49679;DHT22;35570;48.218;16.326;2023-06-01T12:22:13;31.20;42.10
49679;DHT22;35570;48.218;16.326;2023-06-01T12:24:41;31.20;41.50
49679;DHT22;35570;48.218;16.326;2023-06-01T12:27:17;31.00;40.30
49679;DHT22;35570;48.218;16.326;2023-06-01T12:29:47;30.70;41.10
49679;DHT22;35570;48.218;16.326;2023-06-01T12:32:15;30.60;41.40
49679;DHT22;35570;48.218;16.326;2023-06-01T12:34:43;30.60;41.70
49679;DHT22;35570;48.218;16.326;2023-06-01T12:37:19;30.50;41.40
49679;DHT22;35570;48.218;16.326;2023-06-01T12:39:52;30.50;40.90
49679;DHT22;35570;48.218;16.326;2023-06-01T12:42:19;30.40;41.10
49679;DHT22;35570;48.218;16.326;2023-06-01T12:44:52;30.30;41.00
49679;DHT22;35570;48.218;16.326;2023-06-01T12:47:18;30.20;44.00
49679;DHT22;35570;48.218;16.326;2023-06-01T12:50:05;30.50;44.50
49679;DHT22;35570;48.218;16.326;2023-06-01T12:52:31;30.70;42.20
49679;DHT22;35570;48.218;16.326;2023-06-01T12:54:57;30.90;39.70
49679;DHT22;35570;48.218;16.326;2023-06-01T12:57:23;31.00;39.00
49679;DHT22;35570;48.218;16.326;2023-06-01T12:59:48;31.00;42.10
49679;DHT22;35570;48.218;16.326;2023-06-01T13:02:14;31.10;42.00
49679;DHT22;35570;48.218;16.326;2023-06-01T13:04:41;30.90;39.50
49679;DHT22;35570;48.218;16.326;2023-06-01T13:07:07;30.60;42.20
49679;DHT22;35570;48.218;16.326;2023-06-01T13:09:33;30.50;42.20
49679;DHT22;35570;48.218;16.326;2023-06-01T13:11:58;30.60;43.30
49679;DHT22;35570;48.218;16.326;2023-06-01T13:14:24;30.70;43.80
49679;DHT22;35570;48.218;16.326;2023-06-01T13:16:50;30.80;44.00
49679;DHT22;35570;48.218;16.326;2023-06-01T13:19:16;30.90;44.80
49679;DHT22;35570;48.218;16.326;2023-06-01T13:21:41;31.20;46.30
49679;DHT22;35570;48.218;16.326;2023-06-01T13:24:07;31.50;44.80
49679;DHT22;35570;48.218;16.326;2023-06-01T13:26:34;31.90;43.40
49679;DHT22;35570;48.218;16.326;2023-06-01T13:28:59;32.60;42.10
49679;DHT22;35570;48.218;16.326;2023-06-01T13:31:26;33.20;45.20
49679;DHT22;35570;48.218;16.326;2023-06-01T13:33:51;33.80;40.10
49679;DHT22;35570;48.218;16.326;2023-06-01T13:36:17;33.40;41.00
49679;DHT22;35570;48.218;16.326;2023-06-01T13:38:43;33.00;38.30
49679;DHT22;35570;48.218;16.326;2023-06-01T13:41:08;33.30;41.30
49679;DHT22;35570;48.218;16.326;2023-06-01T13:43:34;33.70;42.00
49679;DHT22;35570;48.218;16.326;2023-06-01T13:46:00;34.00;40.80
49679;DHT22;35570;48.218;16.326;2023-06-01T13:48:27;34.50;41.70
49679;DHT22;35570;48.218;16.326;2023-06-01T13:50:52;34.80;40.20
49679;DHT22;35570;48.218;16.326;2023-06-01T13:53:18;35.10;39.90
49679;DHT22;35570;48.218;16.326;2023-06-01T13:55:43;35.00;40.90
49679;DHT22;35570;48.218;16.326;2023-06-01T13:58:09;34.70;40.30
49679;DHT22;35570;48.218;16.326;2023-06-01T14:00:35;34.30;37.70
49679;DHT22;35570;48.218;16.326;2023-06-01T14:03:01;34.50;39.70
49679;DHT22;35570;48.218;16.326;2023-06-01T14:05:27;35.10;40.90
49679;DHT22;35570;48.218;16.326;2023-06-01T14:07:52;35.80;41.00
49679;DHT22;35570;48.218;16.326;2023-06-01T14:10:18;36.30;39.00
49679;DHT22;35570;48.218;16.326;2023-06-01T14:12:44;37.00;38.90
49679;DHT22;35570;48.218;16.326;2023-06-01T14:15:10;37.50;36.80
49679;DHT22;35570;48.218;16.326;2023-06-01T14:17:36;37.90;35.80
49679;DHT22;35570;48.218;16.326;2023-06-01T14:20:02;38.40;38.10
49679;DHT22;35570;48.218;16.326;2023-06-01T14:22:28;39.00;37.10
49679;DHT22;35570;48.218;16.326;2023-06-01T14:24:54;39.40;35.20
49679;DHT22;35570;48.218;16.326;2023-06-01T14:27:19;38.80;33.90
49679;DHT22;35570;48.218;16.326;2023-06-01T14:29:45;38.00;32.20
49679;DHT22;35570;48.218;16.326;2023-06-01T14:32:11;37.70;34.90
49679;DHT22;35570;48.218;16.326;2023-06-01T14:34:36;38.10;34.00
49679;DHT22;35570;48.218;16.326;2023-06-01T14:37:02;38.50;33.30
49679;DHT22;35570;48.218;16.326;2023-06-01T14:39:30;38.70;32.00
49679;DHT22;35570;48.218;16.326;2023-06-01T14:41:55;38.70;32.30
49679;DHT22;35570;48.218;16.326;2023-06-01T14:44:21;38.70;33.60
49679;DHT22;35570;48.218;16.326;2023-06-01T14:46:47;38.30;34.00
49679;DHT22;35570;48.218;16.326;2023-06-01T14:49:12;37.60;31.90
49679;DHT22;35570;48.218;16.326;2023-06-01T14:51:38;36.70;34.00
49679;DHT22;35570;48.218;16.326;2023-06-01T14:54:04;35.50;35.20
49679;DHT22;35570;48.218;16.326;2023-06-01T14:56:30;34.40;35.30
49679;DHT22;35570;48.218;16.326;2023-06-01T14:58:56;33.40;35.90
49679;DHT22;35570;48.218;16.326;2023-06-01T15:01:22;32.50;38.10
49679;DHT22;35570;48.218;16.326;2023-06-01T15:03:49;31.80;38.70
49679;DHT22;35570;48.218;16.326;2023-06-01T15:06:15;31.30;42.60
49679;DHT22;35570;48.218;16.326;2023-06-01T15:08:40;30.90;42.50
49679;DHT22;35570;48.218;16.326;2023-06-01T15:11:06;30.70;43.90
49679;DHT22;35570;48.218;16.326;2023-06-01T15:13:32;30.50;43.20
49679;DHT22;35570;48.218;16.326;2023-06-01T15:15:57;30.40;41.40
49679;DHT22;35570;48.218;16.326;2023-06-01T15:18:23;30.30;40.70
49679;DHT22;35570;48.218;16.326;2023-06-01T15:20:49;30.10;41.60
49679;DHT22;35570;48.218;16.326;2023-06-01T15:23:17;30.00;42.30
49679;DHT22;35570;48.218;16.326;2023-06-01T15:25:44;29.80;40.40
49679;DHT22;35570;48.218;16.326;2023-06-01T15:28:10;29.80;44.00
49679;DHT22;35570;48.218;16.326;2023-06-01T15:30:36;29.70;45.40
49679;DHT22;35570;48.218;16.326;2023-06-01T15:33:02;29.70;45.40
49679;DHT22;35570;48.218;16.326;2023-06-01T15:35:28;29.60;47.30
49679;DHT22;35570;48.218;16.326;2023-06-01T15:37:53;29.50;47.00
49679;DHT22;35570;48.218;16.326;2023-06-01T15:40:19;29.50;45.30
49679;DHT22;35570;48.218;16.326;2023-06-01T15:42:45;29.40;44.90